Angora, Minnesota
Current Conditions -  °F | °C
As of 2:35 PM on Monday 22 Dec 2014 (Local Time) from KCQM Reporting Station
Drizzle Drizzle  
Wind Chill: 30°   Ceiling: 800
Heat Index: 34°   Visibility: 10mi
Dew Point: 34°   Wind: 5mph
Humidity: 100%   Direction: 120°ESE
Pressure: 29.66"   Gusts: NA
Location:  47.77°N, 92.63°W
Report Text: KCQM 222035Z AUTO 12004KT 10SM -DZ OVC008 01/01 A2966 RMK AO2
Loading
Personal Weather Stations






























Interactive Weather Map New forecast layout! Learn more

10-Day Weather Forecast

Advertisements
Track Severe Weather on mobile